This is the latest recevied weather packets stored in our database for station/object 1NW106. If no packets are shown the sender has not sent any weather packets the latest 10 day(s).
| Time | Temp. | Humidity | Pressure | Rain* | Wind** | Luminosity | Snow |
|---|---|---|---|---|---|---|---|
| 1788324107 | 27.78° C | 95% | 1010.5 hPa | 2.79 mm | - | - | - |
| 1788323507 | 27.22° C | 97% | 1010.2 hPa | 2.79 mm | - | - | - |
| 1788322907 | 27.22° C | 99% | 1010.1 hPa | 2.79 mm | - | - | - |
| 1788322307 | 27.22° C | 92% | 1011.2 hPa | 2.79 mm | - | - | - |
| 1788321707 | 27.22° C | 96% | 1010.6 hPa | 2.79 mm | - | - | - |
| 1788321107 | 27.22° C | 98% | 1010.6 hPa | 2.79 mm | - | - | - |
| 1788320507 | 27.22° C | 89% | 1012 hPa | 2.79 mm | - | - | - |
| 1788319907 | 27.22° C | 84% | 1012.4 hPa | 2.79 mm | - | - | - |
| 1788319307 | 27.22° C | 84% | 1012.4 hPa | 2.79 mm | - | - | - |
| 1788318707 | 27.22° C | 84% | 1012.5 hPa | 2.79 mm | - | - | - |
| 1788318107 | 27.78° C | 87% | 1012.1 hPa | 2.79 mm | - | - | - |
| 1788317507 | 27.78° C | 87% | 1012.2 hPa | 2.79 mm | - | - | - |
| 1788316907 | 27.78° C | 88% | 1012.1 hPa | 2.79 mm | - | - | - |
| 1788316307 | 27.22° C | 90% | 1011.8 hPa | 2.79 mm | - | - | - |
| 1788315707 | 27.22° C | 90% | 1011.8 hPa | 2.79 mm | - | - | - |
| 1788315107 | 26.67° C | 92% | 1011.6 hPa | 2.79 mm | - | - | - |
| 1788314507 | 26.67° C | 97% | 1010.5 hPa | 2.79 mm | - | - | - |
| 1788313909 | 26.67° C | 99% | 1010 hPa | 2.79 mm | - | - | - |
| 1788313307 | 26.67° C | 99% | 1009.9 hPa | 2.79 mm | - | - | - |
| 1788312707 | 25.56° C | 99% | 1008.6 hPa | 2.79 mm | - | - | - |
| 1788312107 | 25° C | 99% | 1007.7 hPa | 2.79 mm | - | - | - |
| 1788311507 | 25° C | 99% | 1008.6 hPa | 2.79 mm | - | - | - |
| 1788310907 | 24.44° C | 99% | 1008.1 hPa | 2.79 mm | - | - | - |
| 1788310307 | 24.44° C | 99% | 1007.1 hPa | 2.79 mm | - | - | - |
| 1788309707 | 23.89° C | 99% | 1006.2 hPa | 2.79 mm | - | - | - |
* Rain latest hour (hover to see other rain measurements)
** Current wind speed in m/s (hover to see current wind gust speed)